Nanjemoy, Maryland
Current Conditions -  °F | °C
As of 11:56 AM on Thursday 30 Oct 2014 (Local Time) from KNYG Reporting Station
Scattered Clouds Scattered Clouds  
Wind Chill: 59°   Ceiling: Unl
Heat Index: 59°   Visibility: 10mi
Dew Point: 33°   Wind: 16mph
Humidity: 38%   Direction: 360°N
Pressure: 30.08"   Gusts: 25mph
Location:  38.45°N, 77.22°W
Report Text: KNYG 301556Z 36014G22KT 10SM SCT160 15/01 A3008 RMK AO2 SLP187 T01500006 $
Loading
Personal Weather Stations






























Interactive Weather Map
Tropical Storm Tracking
New forecast layout! Learn more

10-Day Weather Forecast

Advertisements
Track Severe Weather on mobile